Time;durP1;ratioP1;P1;durP2;ratioP2;P2;SDS_P1;SDS_P2;PMS_P1;PMS_P2;Temp;Humidity;BMP_temperature;BMP_pressure;BME280_temperature;BME280_humidity;BME280_pressure;Samples;Min_cycle;Max_cycle;Signal;HPM_P1;HPM_P2
2021/06/24 00:01:05;;;;;;;31.90;17.77;;;30.70;44.70;;;;;;4388629;32;20130;-38
2021/06/24 00:03:33;;;;;;;39.88;17.05;;;30.60;45.50;;;;;;4355502;32;20069;-36
2021/06/24 00:06:00;;;;;;;21.90;13.02;;;30.40;45.90;;;;;;4355791;32;20432;-37
2021/06/24 00:08:27;;;;;;;37.95;24.98;;;30.20;46.30;;;;;;4355742;32;20494;-37
2021/06/24 00:10:55;;;;;;;70.72;46.47;;;30.10;46.80;;;;;;4342990;32;20596;-37
2021/06/24 00:13:22;;;;;;;56.55;40.25;;;30.00;46.60;;;;;;4355589;32;20205;-37
2021/06/24 00:15:49;;;;;;;196.35;134.65;;;30.00;46.40;;;;;;4355262;32;20066;-37
2021/06/24 00:18:15;;;;;;;202.87;141.82;;;30.00;46.50;;;;;;4355361;32;20493;-38
2021/06/24 00:20:42;;;;;;;103.47;69.37;;;30.00;46.70;;;;;;4355743;32;20066;-38
2021/06/24 00:23:09;;;;;;;108.68;67.12;;;30.10;46.90;;;;;;4355331;32;20597;-38
2021/06/24 00:25:35;;;;;;;145.07;99.72;;;30.10;46.90;;;;;;4342893;32;20183;-37
2021/06/24 00:28:03;;;;;;;216.73;153.25;;;30.20;46.80;;;;;;4343654;32;20168;-37
2021/06/24 00:30:29;;;;;;;245.48;167.62;;;30.30;46.40;;;;;;4355493;32;20578;-39
2021/06/24 00:32:56;;;;;;;131.95;90.22;;;30.20;46.00;;;;;;4355367;32;20530;-39
2021/06/24 00:35:22;;;;;;;89.35;56.80;;;30.00;46.10;;;;;;4382905;32;20149;-38
2021/06/24 00:37:48;;;;;;;29.83;19.73;;;29.80;46.60;;;;;;4387796;32;20073;-38
2021/06/24 00:40:15;;;;;;;30.02;21.37;;;29.70;47.70;;;;;;4373871;32;20614;-38
2021/06/24 00:42:42;;;;;;;56.53;39.50;;;29.60;48.50;;;;;;4387874;32;20078;-38
2021/06/24 00:45:11;;;;;;;34.88;25.67;;;29.60;48.50;;;;;;4373734;32;20061;-36
2021/06/24 00:47:38;;;;;;;59.38;39.75;;;29.60;48.40;;;;;;4388560;32;20069;-36
2021/06/24 00:50:06;;;;;;;53.97;36.50;;;29.70;47.80;;;;;;4391043;32;20138;-38
2021/06/24 00:52:33;;;;;;;49.25;30.35;;;29.70;47.50;;;;;;4390886;32;20055;-38
2021/06/24 00:54:59;;;;;;;45.60;24.98;;;29.70;47.50;;;;;;4389059;32;20097;-36
2021/06/24 00:57:26;;;;;;;25.45;18.10;;;29.60;47.80;;;;;;4390837;32;20093;-38
2021/06/24 00:59:53;;;;;;;21.42;14.40;;;29.60;48.00;;;;;;4389086;32;20493;-38
2021/06/24 01:02:19;;;;;;;16.70;12.85;;;29.60;48.20;;;;;;4389206;32;20092;-38
2021/06/24 01:04:46;;;;;;;20.20;12.63;;;29.60;48.20;;;;;;4389013;32;20152;-38
2021/06/24 01:07:12;;;;;;;21.85;14.00;;;29.60;49.10;;;;;;4390265;32;20053;-36
2021/06/24 01:09:39;;;;;;;13.70;10.10;;;29.60;48.40;;;;;;4390245;32;20169;-37
2021/06/24 01:12:08;;;;;;;16.15;10.07;;;29.60;48.80;;;;;;4390520;32;20530;-38
2021/06/24 01:14:35;;;;;;;18.30;10.63;;;29.50;49.00;;;;;;4389697;32;20510;-37
2021/06/24 01:17:03;;;;;;;11.93;10.48;;;29.50;49.00;;;;;;4391030;32;20062;-38
2021/06/24 01:19:30;;;;;;;15.07;10.32;;;29.50;49.10;;;;;;4390378;32;20077;-37
2021/06/24 01:21:56;;;;;;;12.48;9.40;;;29.60;49.10;;;;;;4390770;32;20060;-37
2021/06/24 01:24:23;;;;;;;16.25;7.97;;;29.70;49.60;;;;;;4390219;32;20145;-37
2021/06/24 01:26:50;;;;;;;7.65;4.03;;;29.70;50.30;;;;;;4388761;32;20098;-38
2021/06/24 01:29:16;;;;;;;20.73;6.90;;;29.80;49.80;;;;;;4390448;32;20144;-37
2021/06/24 01:31:43;;;;;;;20.42;10.48;;;29.80;50.20;;;;;;4390378;32;20062;-37
2021/06/24 01:34:10;;;;;;;20.35;10.30;;;29.80;50.30;;;;;;4388926;32;20070;-37
2021/06/24 01:36:37;;;;;;;21.12;11.32;;;29.90;50.10;;;;;;4390071;32;20061;-37
2021/06/24 01:39:07;;;;;;;18.08;10.15;;;30.10;50.00;;;;;;4390262;32;20061;-37
2021/06/24 01:41:33;;;;;;;23.05;12.27;;;30.10;49.70;;;;;;4390191;32;20073;-36
2021/06/24 01:44:00;;;;;;;15.23;9.85;;;30.20;49.60;;;;;;4389992;32;20096;-36
2021/06/24 01:46:26;;;;;;;16.60;9.73;;;30.30;49.30;;;;;;4388606;32;20065;-36
2021/06/24 01:48:53;;;;;;;15.50;11.57;;;30.40;49.10;;;;;;4390951;32;20064;-37
2021/06/24 01:51:22;;;;;;;17.98;10.50;;;30.60;49.00;;;;;;4404734;32;20165;-37
2021/06/24 01:53:50;;;;;;;11.73;10.50;;;30.80;48.70;;;;;;4390862;32;20081;-37
2021/06/24 01:56:16;;;;;;;16.37;8.57;;;30.90;48.50;;;;;;4404972;32;20168;-38
2021/06/24 01:58:43;;;;;;;12.40;7.32;;;31.00;48.30;;;;;;4404194;32;20152;-38
2021/06/24 02:01:09;;;;;;;8.15;6.10;;;31.10;48.20;;;;;;4404949;32;20074;-37
2021/06/24 02:03:37;;;;;;;12.45;7.62;;;31.20;48.20;;;;;;4405114;32;20503;-38
2021/06/24 02:06:04;;;;;;;11.38;8.18;;;31.20;48.30;;;;;;4390512;32;20498;-38
2021/06/24 02:08:32;;;;;;;14.18;8.75;;;31.30;48.40;;;;;;4404872;32;20077;-38
2021/06/24 02:10:58;;;;;;;11.27;8.13;;;31.40;48.20;;;;;;4390455;32;20060;-38
2021/06/24 02:13:26;;;;;;;13.05;6.40;;;31.40;48.10;;;;;;4405079;32;20182;-38
2021/06/24 02:15:54;;;;;;;16.17;9.05;;;31.50;48.00;;;;;;4404553;32;20477;-37
2021/06/24 02:18:20;;;;;;;19.77;8.30;;;31.60;48.00;;;;;;4404703;32;20552;-38
2021/06/24 02:20:47;;;;;;;22.92;4.18;;;31.60;47.90;;;;;;4390452;32;20165;-37
2021/06/24 02:23:13;;;;;;;5.95;5.03;;;31.70;48.60;;;;;;4390787;32;20073;-37
2021/06/24 02:25:40;;;;;;;4.22;3.55;;;31.70;47.90;;;;;;4377900;32;20065;-38
2021/06/24 02:28:06;;;;;;;13.70;9.68;;;31.80;47.80;;;;;;4404484;32;20060;-38
2021/06/24 02:30:34;;;;;;;10.82;8.70;;;31.80;47.80;;;;;;4404287;32;20057;-38
2021/06/24 02:33:00;;;;;;;15.05;8.30;;;31.90;47.80;;;;;;4404462;32;20650;-37
2021/06/24 02:35:27;;;;;;;9.73;8.77;;;31.90;47.80;;;;;;4390252;32;20449;-37
2021/06/24 02:37:55;;;;;;;15.32;8.57;;;32.00;47.70;;;;;;4390570;32;20084;-37
2021/06/24 02:40:21;;;;;;;13.70;9.38;;;32.10;47.70;;;;;;4404209;32;20524;-37
2021/06/24 02:42:48;;;;;;;10.18;7.85;;;32.10;47.30;;;;;;4390216;32;20069;-36
2021/06/24 02:45:15;;;;;;;10.73;9.60;;;32.20;47.20;;;;;;4371248;32;20526;-36
2021/06/24 02:47:41;;;;;;;13.55;8.35;;;32.30;47.20;;;;;;4359645;32;20170;-38
2021/06/24 02:50:10;;;;;;;17.95;8.57;;;32.40;47.00;;;;;;4371744;32;20090;-37
2021/06/24 02:52:36;;;;;;;7.40;4.35;;;32.40;46.80;;;;;;4358868;32;20088;-37
2021/06/24 02:55:04;;;;;;;14.48;10.85;;;32.50;46.80;;;;;;4371717;32;20096;-37
2021/06/24 02:57:31;;;;;;;6.90;4.82;;;32.50;46.80;;;;;;4371584;32;20074;-37
2021/06/24 02:59:57;;;;;;;8.05;5.50;;;32.60;46.40;;;;;;4371553;32;20082;-38
2021/06/24 03:02:23;;;;;;;9.82;5.45;;;32.60;46.30;;;;;;4371088;32;20173;-37
2021/06/24 03:04:50;;;;;;;10.82;8.82;;;32.70;46.30;;;;;;4358922;32;20089;-37
2021/06/24 03:07:16;;;;;;;7.50;5.85;;;32.70;46.00;;;;;;4371455;32;20070;-37
2021/06/24 03:09:43;;;;;;;10.65;7.80;;;32.80;45.30;;;;;;4371448;32;20085;-37
2021/06/24 03:12:09;;;;;;;13.55;9.40;;;32.80;45.20;;;;;;4371132;32;20077;-37
2021/06/24 03:14:36;;;;;;;15.57;10.88;;;32.80;45.00;;;;;;4370938;32;20102;-37
2021/06/24 03:17:03;;;;;;;12.73;8.95;;;32.90;45.20;;;;;;4371327;32;20246;-37
2021/06/24 03:19:29;;;;;;;11.07;9.30;;;32.90;45.10;;;;;;4371151;32;20081;-37
2021/06/24 03:21:55;;;;;;;14.55;8.32;;;33.00;44.90;;;;;;4377212;32;20069;-37
2021/06/24 03:24:22;;;;;;;12.73;10.90;;;33.10;44.60;;;;;;4403775;32;20057;-37
2021/06/24 03:26:48;;;;;;;16.00;10.00;;;33.20;44.80;;;;;;4390076;32;20069;-37
2021/06/24 03:29:15;;;;;;;14.65;11.27;;;33.40;44.60;;;;;;4403530;32;20057;-36
2021/06/24 03:31:41;;;;;;;14.13;11.38;;;33.40;44.20;;;;;;4403988;32;20078;-38
2021/06/24 03:34:08;;;;;;;14.75;10.70;;;33.60;44.30;;;;;;4403285;32;20646;-38
2021/06/24 03:36:34;;;;;;;14.00;11.63;;;33.80;43.80;;;;;;4403297;32;20064;-38
2021/06/24 03:39:01;;;;;;;17.73;13.77;;;34.00;43.30;;;;;;4403431;32;20054;-38
2021/06/24 03:41:27;;;;;;;18.83;12.55;;;34.10;43.10;;;;;;4403158;32;20089;-37
2021/06/24 03:43:54;;;;;;;16.52;10.20;;;34.30;42.80;;;;;;4403425;32;20168;-37
2021/06/24 03:46:24;;;;;;;16.55;11.98;;;34.50;42.10;;;;;;4403831;32;20061;-38
2021/06/24 03:48:51;;;;;;;15.13;10.80;;;34.50;41.70;;;;;;4370362;32;20538;-37
2021/06/24 03:51:18;;;;;;;20.15;11.68;;;34.60;41.40;;;;;;4370842;32;20624;-36
2021/06/24 03:53:45;;;;;;;15.20;11.45;;;34.80;41.60;;;;;;4370595;32;20521;-37
2021/06/24 03:56:11;;;;;;;17.33;11.20;;;34.90;41.50;;;;;;4358278;32;20088;-37
2021/06/24 03:58:38;;;;;;;18.08;11.88;;;35.10;41.30;;;;;;4370540;32;20062;-38
2021/06/24 04:01:05;;;;;;;18.98;12.50;;;35.20;41.40;;;;;;4358074;32;20163;-36
2021/06/24 04:03:31;;;;;;;19.58;11.48;;;35.50;40.60;;;;;;4370621;32;20143;-38
2021/06/24 04:05:58;;;;;;;12.75;11.52;;;35.80;39.70;;;;;;4357765;32;20062;-38
2021/06/24 04:08:24;;;;;;;17.50;12.00;;;36.00;38.90;;;;;;4370397;32;20518;-38
2021/06/24 04:10:51;;;;;;;16.77;11.57;;;36.20;39.10;;;;;;4370354;32;20208;-38
2021/06/24 04:13:17;;;;;;;17.10;11.35;;;36.20;38.70;;;;;;4370669;32;20137;-37
2021/06/24 04:15:43;;;;;;;14.35;12.90;;;36.30;38.90;;;;;;4370443;32;20088;-37
2021/06/24 04:18:10;;;;;;;12.95;11.25;;;36.40;38.70;;;;;;4346072;32;20198;-37
2021/06/24 04:20:37;;;;;;;21.20;12.48;;;36.40;38.40;;;;;;4370638;32;20162;-38
2021/06/24 04:23:03;;;;;;;15.18;13.60;;;36.50;38.30;;;;;;4369779;32;20547;-37
2021/06/24 04:25:30;;;;;;;14.30;12.27;;;36.60;38.40;;;;;;4373500;32;20073;-37
2021/06/24 04:27:59;;;;;;;16.83;13.38;;;36.80;38.20;;;;;;4388018;32;20085;-38
2021/06/24 04:30:27;;;;;;;21.48;14.10;;;37.00;38.00;;;;;;4387484;32;20046;-37
2021/06/24 04:32:59;;;;;;;29.87;13.88;;;37.20;37.60;;;;;;4387672;32;20587;-37
2021/06/24 04:35:26;;;;;;;21.33;16.20;;;37.20;37.50;;;;;;4374309;32;20058;-37
2021/06/24 04:37:53;;;;;;;20.80;14.90;;;37.20;37.70;;;;;;4387675;32;20062;-37
2021/06/24 04:40:20;;;;;;;21.83;14.82;;;37.20;37.80;;;;;;4387427;32;20522;-36
2021/06/24 04:42:46;;;;;;;30.88;16.08;;;37.20;37.80;;;;;;4387928;32;20617;-38
2021/06/24 04:45:14;;;;;;;24.83;16.05;;;37.30;37.80;;;;;;4387996;32;20132;-37
2021/06/24 04:47:41;;;;;;;25.98;16.92;;;37.50;37.50;;;;;;4388390;32;20142;-38
2021/06/24 04:50:08;;;;;;;24.50;16.17;;;37.60;37.60;;;;;;4386317;32;20066;-39
2021/06/24 04:52:34;;;;;;;29.83;16.55;;;37.60;37.70;;;;;;4387677;32;20065;-36
2021/06/24 04:55:01;;;;;;;28.25;18.30;;;37.70;37.60;;;;;;4387663;32;20184;-38
2021/06/24 04:57:27;;;;;;;19.05;17.10;;;37.90;37.50;;;;;;4387715;32;20097;-38
2021/06/24 04:59:54;;;;;;;28.77;16.73;;;38.00;37.30;;;;;;4387516;32;20046;-38
2021/06/24 05:02:20;;;;;;;28.98;19.45;;;38.10;37.40;;;;;;4387546;32;20438;-38
2021/06/24 05:04:46;;;;;;;17.80;14.23;;;38.20;37.30;;;;;;4385990;32;20053;-38
2021/06/24 05:07:13;;;;;;;22.35;16.87;;;38.40;37.10;;;;;;4387741;32;20063;-37
2021/06/24 05:09:40;;;;;;;25.00;17.55;;;38.30;36.90;;;;;;4387249;32;20255;-37
2021/06/24 05:12:11;;;;;;;18.92;16.25;;;38.30;37.10;;;;;;4387458;32;20223;-37
2021/06/24 05:14:38;;;;;;;26.35;18.90;;;38.30;37.20;;;;;;4387623;32;20478;-39
2021/06/24 05:17:05;;;;;;;25.52;18.10;;;38.50;37.10;;;;;;4387636;32;20541;-38
2021/06/24 05:19:35;;;;;;;20.48;13.30;;;38.70;36.80;;;;;;4387132;32;20493;-38
2021/06/24 05:22:02;;;;;;;32.67;18.73;;;38.90;35.10;;;;;;4385955;32;20564;-38
2021/06/24 05:24:28;;;;;;;24.67;16.70;;;38.90;35.80;;;;;;4387684;32;20159;-38
2021/06/24 05:26:55;;;;;;;21.25;17.02;;;38.80;36.00;;;;;;4386020;32;20075;-38
2021/06/24 05:29:21;;;;;;;14.85;12.20;;;38.80;36.10;;;;;;4387592;32;20073;-36
2021/06/24 05:31:48;;;;;;;13.75;12.32;;;38.90;35.00;;;;;;4387416;32;20072;-39
2021/06/24 05:34:15;;;;;;;13.32;10.20;;;38.80;33.40;;;;;;4386064;32;20070;-38
2021/06/24 05:36:42;;;;;;;15.70;11.02;;;38.70;33.00;;;;;;4389561;32;20173;-37
2021/06/24 05:39:09;;;;;;;11.65;10.30;;;38.60;32.80;;;;;;4390393;32;20137;-39
2021/06/24 05:41:36;;;;;;;10.45;9.55;;;38.40;32.60;;;;;;4388588;32;20518;-38
2021/06/24 05:44:02;;;;;;;17.45;11.63;;;38.30;33.60;;;;;;4389938;32;20057;-39
2021/06/24 05:46:29;;;;;;;12.10;10.88;;;38.30;33.70;;;;;;4388053;32;20080;-37
2021/06/24 05:48:56;;;;;;;15.10;11.15;;;38.40;34.20;;;;;;4402071;32;20073;-38
2021/06/24 05:51:23;;;;;;;15.15;9.50;;;38.50;34.00;;;;;;4390762;32;20072;-36
2021/06/24 05:53:51;;;;;;;12.05;10.63;;;38.50;32.90;;;;;;4404992;32;20512;-38
2021/06/24 05:56:19;;;;;;;11.95;9.63;;;38.60;32.30;;;;;;4390383;32;20186;-36
2021/06/24 05:58:45;;;;;;;16.98;10.98;;;38.60;32.70;;;;;;4404989;32;20062;-38
2021/06/24 06:01:12;;;;;;;14.85;11.68;;;38.60;32.80;;;;;;4404943;32;20088;-38
2021/06/24 06:03:38;;;;;;;16.00;7.72;;;38.60;33.00;;;;;;4404803;32;20088;-38
2021/06/24 06:06:05;;;;;;;15.68;10.23;;;38.50;32.70;;;;;;4390713;32;20586;-38
2021/06/24 06:08:31;;;;;;;12.85;10.80;;;38.40;32.80;;;;;;4404054;32;20088;-37
2021/06/24 06:10:58;;;;;;;14.13;11.12;;;38.40;32.50;;;;;;4404628;32;20177;-37
2021/06/24 06:13:24;;;;;;;12.30;8.70;;;38.50;33.10;;;;;;4404753;32;20069;-37
2021/06/24 06:15:51;;;;;;;17.25;12.60;;;38.40;33.00;;;;;;4404691;32;20058;-37
2021/06/24 06:18:26;;;;;;;12.90;11.60;;;38.40;33.40;;;;;;4404659;32;20061;-37
2021/06/24 06:20:54;;;;;;;10.85;10.00;;;38.50;33.50;;;;;;4404778;32;20049;-38
2021/06/24 06:23:22;;;;;;;10.43;5.35;;;38.70;33.30;;;;;;4404850;32;20072;-38
2021/06/24 06:25:49;;;;;;;12.57;8.98;;;38.70;30.40;;;;;;4404564;32;20493;-38
2021/06/24 06:28:17;;;;;;;14.95;10.43;;;38.70;30.30;;;;;;4390293;32;20084;-37
2021/06/24 06:30:44;;;;;;;10.13;9.02;;;38.70;31.00;;;;;;4404694;32;20074;-38
2021/06/24 06:33:11;;;;;;;10.27;7.82;;;38.70;30.00;;;;;;4404572;32;20528;-38
2021/06/24 06:35:37;;;;;;;11.15;10.02;;;38.60;30.30;;;;;;4390053;32;20603;-38
2021/06/24 06:38:04;;;;;;;12.50;10.95;;;38.60;31.50;;;;;;4404392;32;20077;-38
2021/06/24 06:40:31;;;;;;;10.57;7.62;;;38.70;31.60;;;;;;4404288;32;20065;-37
2021/06/24 06:42:58;;;;;;;12.02;8.38;;;38.90;31.70;;;;;;4404243;32;20069;-38
2021/06/24 06:45:27;;;;;;;10.05;9.23;;;39.00;31.20;;;;;;4390115;32;20153;-39
2021/06/24 06:47:54;;;;;;;12.40;7.95;;;39.10;29.80;;;;;;4398726;32;20150;-38
2021/06/24 06:50:21;;;;;;;16.27;10.90;;;39.10;30.30;;;;;;4387869;32;20102;-37
2021/06/24 06:52:47;;;;;;;5.40;3.95;;;39.20;30.70;;;;;;4388674;32;20081;-37
2021/06/24 06:55:14;;;;;;;17.12;9.75;;;39.10;30.60;;;;;;4389035;32;20086;-37
2021/06/24 06:57:40;;;;;;;12.00;8.48;;;39.10;30.50;;;;;;4388996;32;20050;-37
2021/06/24 07:00:10;;;;;;;18.33;10.45;;;39.10;30.90;;;;;;4388619;32;20077;-38
2021/06/24 07:02:37;;;;;;;10.52;6.22;;;39.20;30.80;;;;;;4387390;32;20061;-38
2021/06/24 07:05:05;;;;;;;10.55;8.55;;;39.30;29.80;;;;;;4388776;32;20066;-38
2021/06/24 07:07:32;;;;;;;8.70;6.40;;;39.20;29.90;;;;;;4388639;32;20152;-38
2021/06/24 07:09:58;;;;;;;10.07;6.22;;;39.10;29.70;;;;;;4388694;32;20083;-36
2021/06/24 07:12:25;;;;;;;9.18;8.35;;;38.90;30.00;;;;;;4389217;32;20096;-38
2021/06/24 07:14:51;;;;;;;10.63;9.63;;;39.00;30.00;;;;;;4388258;32;20097;-38
2021/06/24 07:17:18;;;;;;;13.45;9.02;;;39.00;30.50;;;;;;4388312;32;20550;-39
2021/06/24 07:19:44;;;;;;;7.87;3.42;;;39.10;30.40;;;;;;4388588;32;20156;-40
2021/06/24 07:22:10;;;;;;;7.70;3.30;;;39.00;30.00;;;;;;4388427;32;20538;-38
2021/06/24 07:24:37;;;;;;;8.82;7.97;;;39.00;29.90;;;;;;4388368;32;20632;-41
2021/06/24 07:27:04;;;;;;;11.70;8.30;;;39.00;29.90;;;;;;4388516;32;20070;-38
2021/06/24 07:29:31;;;;;;;9.13;7.57;;;39.10;30.00;;;;;;4388284;32;20143;-39
2021/06/24 07:31:57;;;;;;;12.43;7.55;;;39.00;29.90;;;;;;4387084;32;20072;-37
2021/06/24 07:34:24;;;;;;;10.65;9.45;;;39.00;30.50;;;;;;4387319;32;20055;-39
2021/06/24 07:36:51;;;;;;;12.25;8.30;;;39.10;29.50;;;;;;4388194;32;20089;-38
2021/06/24 07:39:17;;;;;;;11.12;9.23;;;39.20;29.80;;;;;;4388109;32;20063;-38
2021/06/24 07:41:43;;;;;;;9.10;8.40;;;39.30;30.10;;;;;;4386620;32;20140;-39
2021/06/24 07:44:10;;;;;;;6.87;2.90;;;39.50;30.40;;;;;;4388327;32;20081;-37
2021/06/24 07:46:37;;;;;;;12.93;9.70;;;39.50;29.10;;;;;;4355233;32;20129;-38
2021/06/24 07:49:04;;;;;;;8.48;7.57;;;39.60;29.20;;;;;;4355634;32;20158;-37
2021/06/24 07:51:31;;;;;;;9.35;8.43;;;39.70;29.60;;;;;;4355714;32;20518;-37
2021/06/24 07:53:57;;;;;;;10.02;7.00;;;39.70;29.90;;;;;;4343570;32;20071;-38
2021/06/24 07:56:24;;;;;;;9.43;8.77;;;39.80;29.10;;;;;;4355130;32;20058;-38
2021/06/24 07:58:52;;;;;;;9.23;8.13;;;39.70;28.90;;;;;;4355240;32;20090;-37
2021/06/24 08:01:19;;;;;;;5.72;3.87;;;39.90;29.00;;;;;;4355452;32;20184;-38
2021/06/24 08:03:46;;;;;;;11.77;8.25;;;40.10;28.30;;;;;;4343162;32;20150;-39
2021/06/24 08:06:12;;;;;;;11.18;7.87;;;40.10;28.00;;;;;;4355810;32;20089;-37
2021/06/24 08:08:39;;;;;;;16.33;8.05;;;40.20;27.50;;;;;;4355393;32;20071;-38
2021/06/24 08:11:06;;;;;;;9.02;8.32;;;40.20;27.60;;;;;;4355413;32;20190;-37
2021/06/24 08:13:32;;;;;;;12.02;7.53;;;40.30;27.70;;;;;;4355132;32;20094;-37
2021/06/24 08:15:59;;;;;;;4.03;2.08;;;40.50;27.30;;;;;;4343494;32;20113;-39
2021/06/24 08:18:25;;;;;;;9.73;6.22;;;40.60;26.80;;;;;;4369925;32;20055;-38
2021/06/24 08:20:52;;;;;;;5.85;5.35;;;40.70;26.70;;;;;;4372890;32;20100;-38
2021/06/24 08:23:19;;;;;;;3.58;3.00;;;40.60;26.20;;;;;;4371232;32;20086;-38
2021/06/24 08:25:46;;;;;;;6.00;5.57;;;40.50;25.90;;;;;;4371113;32;20039;-38
2021/06/24 08:28:13;;;;;;;5.10;2.80;;;40.60;26.00;;;;;;4372596;32;20062;-38
2021/06/24 08:30:44;;;;;;;9.45;4.28;;;40.40;25.90;;;;;;4370990;32;20072;-38
2021/06/24 08:33:14;;;;;;;10.05;6.40;;;40.20;26.00;;;;;;4372999;32;20150;-38
2021/06/24 08:35:41;;;;;;;7.37;4.18;;;40.20;26.40;;;;;;4372281;32;20086;-37
2021/06/24 08:38:11;;;;;;;6.97;6.45;;;40.10;26.60;;;;;;4372421;32;20502;-38
2021/06/24 08:40:39;;;;;;;4.07;3.78;;;40.10;26.60;;;;;;4372573;32;20070;-38
2021/06/24 08:43:06;;;;;;;9.20;6.87;;;40.00;26.70;;;;;;4372637;32;20078;-39
2021/06/24 08:45:33;;;;;;;7.30;6.20;;;39.90;26.80;;;;;;4372360;32;20157;-37
2021/06/24 08:48:00;;;;;;;6.05;5.45;;;40.20;26.90;;;;;;4366584;32;20063;-37
2021/06/24 08:50:27;;;;;;;8.20;6.72;;;40.20;26.80;;;;;;4356010;32;20058;-37
2021/06/24 08:52:55;;;;;;;5.80;5.30;;;40.30;27.10;;;;;;4357829;32;20173;-38
2021/06/24 08:55:21;;;;;;;7.28;6.60;;;40.30;27.20;;;;;;4357167;32;20097;-37
2021/06/24 08:57:48;;;;;;;4.72;4.37;;;40.30;27.20;;;;;;4357475;32;20068;-38
2021/06/24 09:00:15;;;;;;;10.70;2.35;;;40.30;27.70;;;;;;4357851;32;20173;-37
2021/06/24 09:02:46;;;;;;;8.52;5.05;;;40.20;27.70;;;;;;4355833;32;20091;-37
2021/06/24 09:05:13;;;;;;;4.57;4.15;;;40.20;27.50;;;;;;4357686;32;20065;-37
2021/06/24 09:07:54;;;;;;;14.15;6.70;;;40.20;27.70;;;;;;4360623;32;20073;-37
2021/06/24 09:10:22;;;;;;;8.38;4.55;;;40.20;27.30;;;;;;4390893;32;20069;-37
2021/06/24 09:13:03;;;;;;;3.70;2.50;;;40.20;27.70;;;;;;4372153;32;20066;-38
2021/06/24 09:15:37;;;;;;;6.03;5.40;;;40.20;27.70;;;;;;4372770;32;20078;-38
2021/06/24 09:18:04;;;;;;;8.48;6.12;;;40.30;27.70;;;;;;4372745;32;20057;-38
2021/06/24 09:20:33;;;;;;;6.35;3.70;;;40.50;27.40;;;;;;4372701;32;20074;-38
2021/06/24 09:23:19;;;;;;;16.90;5.93;;;40.70;27.00;;;;;;4372876;32;20066;-38
2021/06/24 09:26:06;;;;;;;6.93;6.32;;;40.90;27.00;;;;;;4372333;32;20074;-38
2021/06/24 09:28:41;;;;;;;3.92;2.95;;;41.00;27.10;;;;;;4372888;32;20081;-38
2021/06/24 09:31:30;;;;;;;3.35;2.50;;;40.80;26.90;;;;;;4372957;32;20070;-37
2021/06/24 09:34:08;;;;;;;7.22;5.43;;;40.60;26.80;;;;;;4360505;32;20517;-38
2021/06/24 09:36:37;;;;;;;6.22;3.87;;;40.50;27.00;;;;;;4372801;32;20510;-39
2021/06/24 09:39:08;;;;;;;9.95;5.72;;;40.40;26.70;;;;;;4372527;32;20130;-38
2021/06/24 09:41:35;;;;;;;5.20;4.60;;;40.40;27.00;;;;;;4360357;32;20504;-37
2021/06/24 09:44:19;;;;;;;7.10;6.43;;;40.30;27.40;;;;;;4383189;32;20080;-39
2021/06/24 09:46:45;;;;;;;5.43;4.93;;;40.30;27.10;;;;;;4390156;32;20053;-38
2021/06/24 09:49:12;;;;;;;6.75;6.20;;;40.30;27.80;;;;;;4375990;32;20113;-38
2021/06/24 09:51:38;;;;;;;6.25;5.07;;;40.40;27.20;;;;;;4363074;32;20090;-38
2021/06/24 09:54:15;;;;;;;6.30;5.78;;;40.60;26.90;;;;;;4390035;32;20076;-37
2021/06/24 09:56:54;;;;;;;6.25;5.75;;;40.70;27.00;;;;;;4389848;32;20266;-37
2021/06/24 09:59:29;;;;;;;6.10;3.62;;;40.60;26.60;;;;;;4377428;32;20577;-38
2021/06/24 10:01:56;;;;;;;9.15;5.00;;;40.50;26.50;;;;;;4376755;32;20066;-38
2021/06/24 10:04:28;;;;;;;7.15;6.00;;;40.40;26.80;;;;;;4389914;32;20225;-38
2021/06/24 10:06:57;;;;;;;8.88;5.72;;;40.50;27.00;;;;;;4389606;32;20542;-37
2021/06/24 10:09:24;;;;;;;4.30;3.90;;;40.40;26.70;;;;;;4389411;32;20477;-38
2021/06/24 10:11:51;;;;;;;3.22;2.92;;;40.30;26.70;;;;;;4389239;32;20093;-37
2021/06/24 10:14:19;;;;;;;3.42;3.15;;;40.20;27.00;;;;;;4372065;32;20102;-37
2021/06/24 10:16:54;;;;;;;8.63;6.25;;;40.30;27.10;;;;;;4371596;32;20197;-37
2021/06/24 10:19:29;;;;;;;4.87;3.70;;;40.40;27.00;;;;;;4371595;32;20066;-38
2021/06/24 10:22:19;;;;;;;6.50;5.87;;;40.50;27.00;;;;;;4359309;32;20562;-38
2021/06/24 10:24:59;;;;;;;10.45;6.95;;;40.50;26.70;;;;;;4359758;32;20078;-37
2021/06/24 10:27:36;;;;;;;4.43;3.87;;;40.60;27.10;;;;;;4359264;32;20482;-38
2021/06/24 10:30:17;;;;;;;7.57;6.90;;;41.00;27.20;;;;;;4371288;32;20597;-37
2021/06/24 10:33:01;;;;;;;7.65;6.43;;;41.20;27.20;;;;;;4359202;32;20062;-37
2021/06/24 10:35:35;;;;;;;7.12;6.53;;;41.30;26.90;;;;;;4361104;32;20061;-38
2021/06/24 10:38:02;;;;;;;10.15;5.18;;;41.40;26.70;;;;;;4371714;32;20198;-38
2021/06/24 10:40:42;;;;;;;15.55;6.95;;;41.50;26.80;;;;;;4371502;32;20092;-38
2021/06/24 10:43:11;;;;;;;8.15;6.80;;;41.50;26.90;;;;;;4371871;32;20074;-37
2021/06/24 10:45:39;;;;;;;5.78;5.20;;;41.50;27.00;;;;;;4382626;32;20173;-38
2021/06/24 10:48:31;;;;;;;8.35;6.55;;;41.50;27.10;;;;;;4389324;32;20058;-38
2021/06/24 10:51:05;;;;;;;7.80;7.07;;;41.10;27.10;;;;;;4389157;32;20060;-38
2021/06/24 10:53:53;;;;;;;10.82;7.80;;;41.00;27.50;;;;;;4389160;32;20619;-39
2021/06/24 10:56:50;;;;;;;10.70;7.32;;;40.80;27.80;;;;;;4389000;32;20450;-37
2021/06/24 10:59:28;;;;;;;10.52;7.32;;;41.00;28.00;;;;;;4388870;32;20146;-37
2021/06/24 11:02:05;;;;;;;8.95;7.18;;;41.10;27.80;;;;;;4389189;32;20134;-37
2021/06/24 11:04:38;;;;;;;9.75;7.03;;;41.10;27.70;;;;;;4387434;32;20173;-39
2021/06/24 11:07:22;;;;;;;7.37;6.68;;;41.00;27.90;;;;;;4388762;32;20073;-39
2021/06/24 11:10:55;;;;;;;6.80;6.18;;;41.00;27.80;;;;;;4389110;32;20058;-38
2021/06/24 11:13:38;;;;;;;9.70;6.25;;;41.10;27.50;;;;;;4355965;32;20169;-38
2021/06/24 11:16:20;;;;;;;6.05;5.50;;;41.00;27.70;;;;;;4356322;32;20078;-39
2021/06/24 11:19:06;;;;;;;7.03;6.37;;;40.80;26.70;;;;;;4356234;32;20510;-38
2021/06/24 11:21:32;;;;;;;6.03;5.60;;;40.80;27.00;;;;;;4356132;32;20181;-38
2021/06/24 11:24:02;;;;;;;8.70;6.40;;;40.90;27.20;;;;;;4355958;32;20082;-37
2021/06/24 11:26:31;;;;;;;10.90;8.52;;;41.20;27.50;;;;;;4355894;32;20527;-38
2021/06/24 11:29:28;;;;;;;7.70;6.97;;;41.20;28.70;;;;;;4356130;32;20077;-38
2021/06/24 11:32:09;;;;;;;9.95;5.60;;;41.10;29.30;;;;;;4356010;32;20562;-37
2021/06/24 11:34:52;;;;;;;7.72;7.12;;;40.80;29.50;;;;;;4355848;32;20077;-40
2021/06/24 11:37:29;;;;;;;5.40;4.43;;;40.50;29.90;;;;;;4343724;32;20097;-38
2021/06/24 11:40:06;;;;;;;8.63;7.82;;;40.30;29.80;;;;;;4330908;32;20074;-38
2021/06/24 11:42:41;;;;;;;12.73;9.77;;;40.00;30.00;;;;;;4343487;32;20166;-39
2021/06/24 11:45:09;;;;;;;9.95;8.15;;;39.80;30.60;;;;;;4356294;32;20071;-37
2021/06/24 11:47:38;;;;;;;8.70;6.62;;;39.70;30.80;;;;;;4354095;32;20055;-39
2021/06/24 12:04:19;;;;;;;12.73;6.28;;;36.40;32.80;;;;;;4355519;32;20091;-38
2021/06/24 12:07:09;;;;;;;3.92;3.45;;;36.40;32.90;;;;;;4343231;32;20078;-39
2021/06/24 12:09:54;;;;;;;13.18;5.68;;;36.30;32.70;;;;;;4355740;32;20092;-38
2021/06/24 12:12:21;;;;;;;;;;;36.40;32.80;;;;;;4355867;32;20583;-38
2021/06/24 12:14:53;;;;;;;6.72;2.83;;;36.20;32.60;;;;;;4355425;32;19989;-38
2021/06/24 12:17:25;;;;;;;2.33;1.20;;;36.10;32.80;;;;;;4355580;32;20579;-38
2021/06/24 12:20:10;;;;;;;5.62;3.87;;;36.00;32.70;;;;;;4355697;32;20093;-38
2021/06/24 12:22:47;;;;;;;6.80;4.05;;;36.00;33.50;;;;;;4355158;32;20607;-37
2021/06/24 12:25:25;;;;;;;10.70;5.18;;;35.80;33.70;;;;;;4355594;32;20482;-38
2021/06/24 12:27:55;;;;;;;7.20;5.32;;;35.90;34.10;;;;;;4355139;32;20177;-38
2021/06/24 12:30:40;;;;;;;7.53;5.10;;;36.10;33.00;;;;;;4355073;32;20075;-37
2021/06/24 12:33:11;;;;;;;9.88;6.43;;;36.20;32.50;;;;;;4355004;32;20099;-38
2021/06/24 12:35:41;;;;;;;9.10;5.68;;;36.30;32.50;;;;;;4376764;32;20141;-39
2021/06/24 12:38:10;;;;;;;8.85;5.12;;;36.40;32.00;;;;;;4387947;32;20139;-39
2021/06/24 12:40:39;;;;;;;4.72;4.10;;;36.70;31.70;;;;;;4387924;32;20054;-38
2021/06/24 12:43:08;;;;;;;4.62;3.58;;;37.00;31.50;;;;;;4374361;32;20104;-39
2021/06/24 12:45:37;;;;;;;9.38;5.22;;;37.20;30.60;;;;;;4390642;32;20518;-38
2021/06/24 12:48:05;;;;;;;5.30;3.53;;;37.20;30.30;;;;;;4397439;32;20069;-39
2021/06/24 12:50:33;;;;;;;14.82;4.97;;;37.00;30.80;;;;;;4405811;32;20065;-39
2021/06/24 12:53:08;;;;;;;13.55;6.60;;;36.70;31.40;;;;;;4392102;32;20078;-38
2021/06/24 12:55:43;;;;;;;10.18;5.28;;;36.30;32.00;;;;;;4391402;32;20130;-39
2021/06/24 12:58:31;;;;;;;18.80;4.50;;;36.10;32.00;;;;;;4405439;32;20073;-38
2021/06/24 13:01:12;;;;;;;92.85;9.77;;;35.80;32.30;;;;;;4405573;32;20077;-38